Language: 


Des rapports , des résumés tant et plus, au choix de chacun....


Données statistiques de la station
Quotidien Rapport Mars 10, 2017 Unités:  Métrique    Anglais   les deux
« Précédent Jour
Suivant Jour »
Quotidien Hebdomadaire Mensuel Annuel Actuel
  Haut: Bas: Moyen:
Température: 16.4 °C 0.0 °C 8.5 °C
Pt de rosée: 9.6 °C 2.0 °C 4.5 °C
Humidité: 98 % 0 % 79 %
Vitesse du vent: 15.4 km/h 0.0 km/h 4 km/h
Rafales: 20.6 km/h - -
Vent:- - SE
Pression: 1028.0 hPa 0.0 hPa -
Précipitation: 0.0 mm    
Historical Graphs
 
 
Données statistiques pour Mars 10, 2017
Heure Température Point de rosée Pression Vent Vitesse du vent Refales Humidité Pluie (taux horaire)
00:01 5.7 °C 3.8 °C 1026.0 hPa North 5.0 km/h 6.1 km/h 88 % 0.0 mm
00:06 5.7 °C 3.8 °C 1026.0 hPa Calm   6.1 km/h 88 % 0.0 mm
00:11 5.6 °C 3.9 °C 1027.0 hPa Calm   6.1 km/h 89 % 0.0 mm
00:16 5.4 °C 3.6 °C 1027.0 hPa Calm     88 % 0.0 mm
00:21 5.2 °C 3.4 °C 1027.0 hPa Calm     88 % 0.0 mm
00:26 5.1 °C 3.3 °C 1027.0 hPa Calm     88 % 0.0 mm
00:31 4.8 °C 3.0 °C 1027.0 hPa Calm     88 % 0.0 mm
00:36 4.7 °C 2.9 °C 1027.0 hPa NNE 3.2 km/h 3.2 km/h 88 % 0.0 mm
00:41 4.7 °C 3.1 °C 1027.0 hPa Calm   4.7 km/h 89 % 0.0 mm
00:46 4.6 °C 3.1 °C 1027.0 hPa Calm   4.7 km/h 90 % 0.0 mm
00:51 4.4 °C 2.9 °C 1027.0 hPa Calm     90 % 0.0 mm
00:56 4.3 °C 2.8 °C 1027.0 hPa Calm     90 % 0.0 mm
01:01 4.1 °C 2.6 °C 1027.0 hPa NE 1.4 km/h 1.4 km/h 90 % 0.0 mm
01:06 4.0 °C 2.5 °C 1027.0 hPa NNE 3.2 km/h 4.3 km/h 90 % 0.0 mm
01:11 4.2 °C 2.9 °C 1027.0 hPa Calm   5.0 km/h 91 % 0.0 mm
01:16 4.2 °C 3.1 °C 1027.0 hPa Calm   5.0 km/h 92 % 0.0 mm
01:21 4.2 °C 3.2 °C 1027.0 hPa NNW 2.1 km/h 5.0 km/h 93 % 0.0 mm
01:26 4.1 °C 3.1 °C 1027.0 hPa Calm   5.0 km/h 93 % 0.0 mm
01:31 3.9 °C 2.7 °C 1027.0 hPa Calm   1.4 km/h 92 % 0.0 mm
01:36 3.7 °C 2.6 °C 1027.0 hPa Calm   1.4 km/h 92 % 0.0 mm
01:41 3.6 °C 2.3 °C 1027.0 hPa Calm     92 % 0.0 mm
01:46 3.4 °C 2.3 °C 1027.0 hPa WNW 1.8 km/h 2.1 km/h 92 % 0.0 mm
01:51 3.3 °C 2.2 °C 1027.0 hPa Calm   2.6 km/h 92 % 0.0 mm
01:56 3.2 °C 2.2 °C 1027.0 hPa Calm   2.6 km/h 93 % 0.0 mm
02:02 0.0 °C 2.0 °C 0.0 hPa Calm     0 % 0.0 mm
02:07 3.2 °C 2.3 °C 1027.0 hPa Calm   4.0 km/h 94 % 0.0 mm
02:12 3.1 °C 2.3 °C 1027.0 hPa NNE 3.2 km/h 4.0 km/h 94 % 0.0 mm
02:17 3.1 °C 2.2 °C 1027.0 hPa Calm   3.2 km/h 94 % 0.0 mm
02:22 2.9 °C 2.1 °C 1027.0 hPa NE 1.8 km/h 3.2 km/h 94 % 0.0 mm
02:27 3.1 °C 2.3 °C 1027.0 hPa NNE 5.0 km/h 6.1 km/h 95 % 0.0 mm
02:32 3.2 °C 2.5 °C 1027.0 hPa NNE 4.7 km/h 6.1 km/h 95 % 0.0 mm
02:37 3.2 °C 2.7 °C 1027.0 hPa Calm   5.8 km/h 96 % 0.0 mm
02:42 3.1 °C 2.6 °C 1028.0 hPa Calm   4.7 km/h 96 % 0.0 mm
02:47 3.1 °C 2.6 °C 1028.0 hPa Calm     96 % 0.0 mm
02:52 3.1 °C 2.6 °C 1028.0 hPa Calm   4.0 km/h 96 % 0.0 mm
02:57 3.1 °C 2.6 °C 1026.0 hPa Calm   4.0 km/h 96 % 0.0 mm
03:02 3.1 °C 2.4 °C 1026.0 hPa Calm     96 % 0.0 mm
03:07 3.1 °C 2.4 °C 1026.0 hPa Calm     96 % 0.0 mm
03:12 3.1 °C 2.4 °C 1027.0 hPa NE 4.7 km/h 4.7 km/h 96 % 0.0 mm
03:17 3.2 °C 2.8 °C 1027.0 hPa NNE 5.8 km/h 6.9 km/h 97 % 0.0 mm
03:22 3.2 °C 2.8 °C 1027.0 hPa NE 4.3 km/h 7.6 km/h 97 % 0.0 mm
03:27 3.2 °C 2.8 °C 1027.0 hPa NNE 4.3 km/h 7.6 km/h 97 % 0.0 mm
03:32 3.1 °C 2.7 °C 1027.0 hPa Calm   6.4 km/h 97 % 0.0 mm
03:37 3.1 °C 2.7 °C 1027.0 hPa Calm   5.8 km/h 97 % 0.0 mm
03:42 3.2 °C 2.8 °C 1027.0 hPa North 6.1 km/h 6.9 km/h 97 % 0.0 mm
03:47 3.2 °C 2.8 °C 1027.0 hPa NE 3.2 km/h 6.9 km/h 97 % 0.0 mm
03:52 3.1 °C 2.7 °C 1027.0 hPa Calm   5.8 km/h 97 % 0.0 mm
03:57 3.1 °C 2.7 °C 1028.0 hPa Calm   3.2 km/h 97 % 0.0 mm
04:02 3.1 °C 2.7 °C 1028.0 hPa Calm   4.0 km/h 97 % 0.0 mm
04:07 3.1 °C 2.7 °C 1028.0 hPa Calm   4.0 km/h 97 % 0.0 mm
04:12 2.9 °C 2.5 °C 1027.0 hPa Calm     97 % 0.0 mm
04:17 2.9 °C 2.5 °C 1027.0 hPa Calm     97 % 0.0 mm
04:22 2.8 °C 2.4 °C 1027.0 hPa NNE 3.5 km/h 4.3 km/h 97 % 0.0 mm
04:27 2.8 °C 2.6 °C 1027.0 hPa Calm   4.3 km/h 98 % 0.0 mm
04:32 2.7 °C 2.4 °C 1027.0 hPa Calm   4.3 km/h 98 % 0.0 mm
04:37 2.8 °C 2.6 °C 1027.0 hPa Calm     98 % 0.0 mm
04:42 2.9 °C 2.7 °C 1027.0 hPa Calm   5.5 km/h 98 % 0.0 mm
04:47 3.1 °C 2.8 °C 1027.0 hPa NE 4.7 km/h 5.8 km/h 98 % 0.0 mm
04:52 3.1 °C 2.8 °C 1027.0 hPa NE 4.0 km/h 5.8 km/h 98 % 0.0 mm
04:57 2.9 °C 2.7 °C 1027.0 hPa NE 4.3 km/h 5.0 km/h 98 % 0.0 mm
05:02 2.9 °C 2.7 °C 1027.0 hPa NE 5.5 km/h 5.5 km/h 98 % 0.0 mm
05:07 2.9 °C 2.7 °C 1027.0 hPa Calm   5.5 km/h 98 % 0.0 mm
05:12 2.8 °C 2.6 °C 1027.0 hPa Calm   5.0 km/h 98 % 0.0 mm
05:17 2.7 °C 2.4 °C 1027.0 hPa NE 1.8 km/h 3.2 km/h 98 % 0.0 mm
05:22 2.8 °C 2.6 °C 1027.0 hPa NE 3.2 km/h 3.5 km/h 98 % 0.0 mm
05:27 2.9 °C 2.7 °C 1027.0 hPa Calm   4.7 km/h 98 % 0.0 mm
05:32 3.1 °C 2.8 °C 1027.0 hPa NE 6.1 km/h 6.1 km/h 98 % 0.0 mm
05:37 3.1 °C 2.8 °C 1027.0 hPa ENE 4.3 km/h 6.1 km/h 98 % 0.0 mm
05:42 3.2 °C 2.9 °C 1027.0 hPa NE 3.5 km/h 6.1 km/h 98 % 0.0 mm
05:47 3.2 °C 2.9 °C 1027.0 hPa Calm   5.5 km/h 98 % 0.0 mm
05:52 3.2 °C 2.9 °C 1027.0 hPa NE 4.3 km/h 4.7 km/h 98 % 0.0 mm
05:57 3.3 °C 3.1 °C 1027.0 hPa ENE 4.0 km/h 4.7 km/h 98 % 0.0 mm
06:02 3.4 °C 3.2 °C 1027.0 hPa NE 4.7 km/h 5.8 km/h 98 % 0.0 mm
06:07 3.6 °C 3.2 °C 1027.0 hPa ENE 5.0 km/h 5.8 km/h 98 % 0.0 mm
06:12 3.6 °C 3.3 °C 1027.0 hPa ENE 4.7 km/h 5.8 km/h 98 % 0.0 mm
06:17 3.6 °C 3.3 °C 1027.0 hPa ENE 3.2 km/h 5.5 km/h 98 % 0.0 mm
06:22 3.6 °C 3.3 °C 1027.0 hPa NE 3.5 km/h 5.5 km/h 98 % 0.0 mm
06:27 3.6 °C 3.3 °C 1027.0 hPa Calm   4.3 km/h 98 % 0.0 mm
06:32 3.6 °C 3.2 °C 1027.0 hPa Calm   3.5 km/h 98 % 0.0 mm
06:37 3.6 °C 3.2 °C 1027.0 hPa Calm     98 % 0.0 mm
06:42 3.6 °C 3.2 °C 1027.0 hPa ENE 2.1 km/h 4.0 km/h 98 % 0.0 mm
06:47 3.6 °C 3.2 °C 1027.0 hPa ENE 3.2 km/h 4.3 km/h 98 % 0.0 mm
06:52 3.6 °C 3.3 °C 1027.0 hPa Calm   4.3 km/h 98 % 0.0 mm
06:57 3.6 °C 3.3 °C 1027.0 hPa ENE 3.2 km/h 4.0 km/h 98 % 0.0 mm
07:02 3.6 °C 3.3 °C 1027.0 hPa ENE 1.4 km/h 4.3 km/h 98 % 0.0 mm
07:07 3.7 °C 3.4 °C 1027.0 hPa Calm   4.3 km/h 98 % 0.0 mm
07:12 3.7 °C 3.4 °C 1027.0 hPa ENE 4.3 km/h 4.7 km/h 98 % 0.0 mm
07:17 3.8 °C 3.6 °C 1027.0 hPa Calm   4.7 km/h 98 % 0.0 mm
07:22 3.9 °C 3.6 °C 1027.0 hPa ENE 2.6 km/h 4.3 km/h 98 % 0.0 mm
07:27 4.0 °C 3.7 °C 1027.0 hPa East 3.5 km/h 5.0 km/h 98 % 0.0 mm
07:32 4.0 °C 3.7 °C 1027.0 hPa East 4.0 km/h 5.0 km/h 98 % 0.0 mm
07:37 4.1 °C 3.8 °C 1026.0 hPa ENE 3.2 km/h 5.0 km/h 98 % 0.0 mm
07:42 4.2 °C 3.9 °C 1026.0 hPa ESE 3.2 km/h 5.8 km/h 98 % 0.0 mm
07:47 4.3 °C 4.0 °C 1026.0 hPa East 4.0 km/h 5.8 km/h 98 % 0.0 mm
07:52 4.4 °C 4.1 °C 1026.0 hPa Calm   5.5 km/h 98 % 0.0 mm
07:57 4.5 °C 4.2 °C 1026.0 hPa East 4.0 km/h 5.0 km/h 98 % 0.0 mm
08:02 4.6 °C 4.3 °C 1026.0 hPa East 6.9 km/h 6.9 km/h 98 % 0.0 mm
08:07 4.7 °C 4.4 °C 1027.0 hPa ENE 6.9 km/h 7.2 km/h 98 % 0.0 mm
08:12 4.7 °C 4.4 °C 1027.0 hPa East 5.0 km/h 7.2 km/h 98 % 0.0 mm
08:17 4.8 °C 4.5 °C 1027.0 hPa ENE 7.9 km/h 10.1 km/h 98 % 0.0 mm
08:22 4.9 °C 4.6 °C 1027.0 hPa ESE 5.0 km/h 10.1 km/h 98 % 0.0 mm
08:27 5.0 °C 4.7 °C 1027.0 hPa East 5.5 km/h 8.7 km/h 98 % 0.0 mm
08:32 5.2 °C 4.9 °C 1027.0 hPa ESE 6.1 km/h 10.1 km/h 98 % 0.0 mm
08:37 5.3 °C 5.0 °C 1027.0 hPa ESE 7.6 km/h 10.5 km/h 98 % 0.0 mm
08:42 5.3 °C 5.0 °C 1027.0 hPa SSE 10.1 km/h 10.8 km/h 98 % 0.0 mm
08:47 5.4 °C 5.1 °C 1027.0 hPa ESE 7.9 km/h 10.8 km/h 98 % 0.0 mm
08:52 5.5 °C 5.2 °C 1027.0 hPa ESE 7.9 km/h 13.7 km/h 98 % 0.0 mm
08:57 5.5 °C 5.2 °C 1027.0 hPa ESE 4.3 km/h 13.7 km/h 98 % 0.0 mm
09:02 5.6 °C 5.3 °C 1027.0 hPa ESE 12.6 km/h 12.6 km/h 98 % 0.0 mm
09:07 5.7 °C 5.4 °C 1027.0 hPa East 8.7 km/h 12.6 km/h 98 % 0.0 mm
09:12 5.8 °C 5.5 °C 1027.0 hPa ESE 7.9 km/h 12.6 km/h 98 % 0.0 mm
09:17 5.9 °C 5.6 °C 1027.0 hPa ESE 6.1 km/h 9.3 km/h 98 % 0.0 mm
09:22 6.1 °C 5.8 °C 1028.0 hPa SE 9.0 km/h 9.0 km/h 98 % 0.0 mm
09:27 6.3 °C 6.0 °C 1028.0 hPa ESE 8.7 km/h 14.0 km/h 98 % 0.0 mm
09:32 6.4 °C 6.1 °C 1028.0 hPa ESE 10.5 km/h 14.0 km/h 98 % 0.0 mm
09:37 6.6 °C 6.3 °C 1027.0 hPa SSE 6.9 km/h 14.0 km/h 98 % 0.0 mm
09:42 6.6 °C 6.3 °C 1027.0 hPa SE 7.9 km/h 13.0 km/h 98 % 0.0 mm
09:47 6.8 °C 6.4 °C 1027.0 hPa SE 7.9 km/h 13.0 km/h 97 % 0.0 mm
09:52 7.1 °C 6.6 °C 1028.0 hPa SSE 9.3 km/h 10.5 km/h 97 % 0.0 mm
09:57 7.3 °C 6.8 °C 1028.0 hPa ESE 7.9 km/h 12.6 km/h 97 % 0.0 mm
10:02 7.6 °C 7.1 °C 1028.0 hPa SE 10.5 km/h 12.6 km/h 97 % 0.0 mm
10:07 8.1 °C 7.4 °C 1028.0 hPa SE 5.0 km/h 10.8 km/h 96 % 0.0 mm
10:12 7.9 °C 7.3 °C 1028.0 hPa ESE 4.3 km/h 11.6 km/h 96 % 0.0 mm
10:17 8.1 °C 7.3 °C 1028.0 hPa SSE 7.9 km/h 11.6 km/h 95 % 0.0 mm
10:22 8.3 °C 7.6 °C 1028.0 hPa SSE 5.8 km/h 10.5 km/h 95 % 0.0 mm
10:27 8.6 °C 8.0 °C 1028.0 hPa SSE 6.1 km/h 10.5 km/h 96 % 0.0 mm
10:32 9.1 °C 8.3 °C 1028.0 hPa South 4.3 km/h 9.0 km/h 95 % 0.0 mm
10:37 9.3 °C 8.6 °C 1027.0 hPa SE 9.7 km/h 11.9 km/h 95 % 0.0 mm
10:42 9.5 °C 8.6 °C 1027.0 hPa SSE 6.1 km/h 11.9 km/h 94 % 0.0 mm
10:47 10.0 °C 9.1 °C 1027.0 hPa SSE 5.0 km/h 10.5 km/h 94 % 0.0 mm
10:52 10.7 °C 9.6 °C 1027.0 hPa ESE 5.5 km/h 10.5 km/h 93 % 0.0 mm
10:57 11.2 °C 9.6 °C 1027.0 hPa SSE 4.7 km/h 12.2 km/h 90 % 0.0 mm
11:02 10.8 °C 8.3 °C 1027.0 hPa SSE 5.8 km/h 12.2 km/h 85 % 0.0 mm
11:07 11.2 °C 8.4 °C 1028.0 hPa ESE 3.5 km/h 9.0 km/h 83 % 0.0 mm
11:12 11.7 °C 9.1 °C 1028.0 hPa SE 4.0 km/h 9.0 km/h 84 % 0.0 mm
11:17 11.9 °C 9.5 °C 1028.0 hPa ESE 6.4 km/h 8.7 km/h 85 % 0.0 mm
11:22 11.8 °C 8.3 °C 1027.0 hPa ESE 10.1 km/h 12.2 km/h 79 % 0.0 mm
11:27 11.8 °C 8.2 °C 1027.0 hPa East 7.9 km/h 13.7 km/h 79 % 0.0 mm
11:32 11.7 °C 7.4 °C 1027.0 hPa SE 7.6 km/h 13.7 km/h 75 % 0.0 mm
11:37 11.8 °C 7.2 °C 1027.0 hPa ESE 11.6 km/h 12.6 km/h 73 % 0.0 mm
11:42 12.2 °C 8.1 °C 1027.0 hPa ESE 9.7 km/h 12.6 km/h 76 % 0.0 mm
11:47 12.1 °C 6.7 °C 1027.0 hPa SE 6.1 km/h 12.2 km/h 70 % 0.0 mm
11:52 12.3 °C 7.7 °C 1026.0 hPa SE 9.0 km/h 12.6 km/h 73 % 0.0 mm
11:57 12.7 °C 7.6 °C 1026.0 hPa SE 9.3 km/h 12.6 km/h 71 % 0.0 mm
12:02 12.9 °C 7.6 °C 1026.0 hPa ESE 6.9 km/h 11.6 km/h 70 % 0.0 mm
12:07 13.2 °C 8.1 °C 1027.0 hPa SE 9.3 km/h 11.9 km/h 71 % 0.0 mm
12:12 13.3 °C 7.3 °C 1027.0 hPa SSE 9.0 km/h 11.9 km/h 67 % 0.0 mm
12:17 13.5 °C 7.7 °C 1027.0 hPa SE 6.9 km/h 10.1 km/h 68 % 0.0 mm
12:22 13.7 °C 7.7 °C 1027.0 hPa SSE 9.3 km/h 10.1 km/h 67 % 0.0 mm
12:27 13.8 °C 6.9 °C 1027.0 hPa South 9.3 km/h 13.7 km/h 63 % 0.0 mm
12:32 14.1 °C 7.4 °C 1027.0 hPa SE 7.2 km/h 14.3 km/h 64 % 0.0 mm
12:37 14.1 °C 6.2 °C 1027.0 hPa SSW 7.9 km/h 14.3 km/h 59 % 0.0 mm
12:42 14.4 °C 5.5 °C 1027.0 hPa SSE 12.2 km/h 12.6 km/h 55 % 0.0 mm
12:47 14.6 °C 5.4 °C 1027.0 hPa South 15.4 km/h 15.4 km/h 54 % 0.0 mm
12:52 14.7 °C 4.7 °C 1027.0 hPa SSE 5.5 km/h 15.4 km/h 51 % 0.0 mm
12:58 14.8 °C 4.4 °C 1027.0 hPa South 6.4 km/h 13.7 km/h 50 % 0.0 mm
13:03 14.9 °C 4.3 °C 1027.0 hPa South 5.0 km/h 13.0 km/h 49 % 0.0 mm
13:08 14.7 °C 3.8 °C 1026.0 hPa South 10.5 km/h 20.6 km/h 48 % 0.0 mm
13:13 14.8 °C 3.9 °C 1026.0 hPa SSE 12.2 km/h 20.6 km/h 48 % 0.0 mm
13:18 14.9 °C 4.0 °C 1026.0 hPa South 9.0 km/h 12.6 km/h 48 % 0.0 mm
13:23 15.0 °C 4.1 °C 1026.0 hPa SSE 9.0 km/h 12.6 km/h 48 % 0.0 mm
13:28 15.1 °C 4.4 °C 1026.0 hPa SSW 9.0 km/h 14.0 km/h 49 % 0.0 mm
13:33 15.1 °C 4.2 °C 1026.0 hPa SSE 10.1 km/h 14.0 km/h 48 % 0.0 mm
13:38 15.0 °C 4.3 °C 1026.0 hPa SE 7.9 km/h 12.2 km/h 49 % 0.0 mm
13:43 15.3 °C 4.6 °C 1026.0 hPa SSE 9.7 km/h 10.1 km/h 49 % 0.0 mm
13:48 15.4 °C 4.7 °C 1026.0 hPa SSE 5.5 km/h 10.1 km/h 49 % 0.0 mm
13:53 15.5 °C 4.5 °C 1026.0 hPa SE 6.4 km/h 11.9 km/h 48 % 0.0 mm
13:58 15.5 °C 4.8 °C 1026.0 hPa South 9.3 km/h 12.6 km/h 49 % 0.0 mm
14:03 15.5 °C 4.8 °C 1026.0 hPa SSW 7.9 km/h 12.6 km/h 49 % 0.0 mm
14:08 15.5 °C 4.5 °C 1026.0 hPa SE 6.1 km/h 10.1 km/h 48 % 0.0 mm
14:13 15.6 °C 4.9 °C 1026.0 hPa SSW 2.6 km/h 10.1 km/h 49 % 0.0 mm
14:18 15.5 °C 4.8 °C 1026.0 hPa SSE 9.3 km/h 11.6 km/h 49 % 0.0 mm
14:23 15.3 °C 4.6 °C 1024.9 hPa SE 6.1 km/h 11.9 km/h 49 % 0.0 mm
14:28 15.4 °C 4.4 °C 1024.9 hPa SSE 6.9 km/h 12.6 km/h 48 % 0.0 mm
14:33 15.6 °C 4.9 °C 1024.9 hPa SSW 5.0 km/h 12.6 km/h 49 % 0.0 mm
14:38 15.8 °C 4.8 °C 1024.9 hPa SSW 4.3 km/h 11.9 km/h 48 % 0.0 mm
14:43 16.2 °C 5.4 °C 1024.9 hPa South 6.1 km/h 12.2 km/h 49 % 0.0 mm
14:48 16.2 °C 4.8 °C 1024.9 hPa SSE 9.0 km/h 14.0 km/h 47 % 0.0 mm
14:53 16.2 °C 5.2 °C 1024.9 hPa South 6.1 km/h 14.0 km/h 48 % 0.0 mm
14:58 16.3 °C 5.6 °C 1024.9 hPa SSE 8.7 km/h 10.5 km/h 49 % 0.0 mm
15:03 16.3 °C 5.2 °C 1024.9 hPa SSE 6.1 km/h 11.9 km/h 48 % 0.0 mm
15:08 16.4 °C 5.3 °C 1024.9 hPa South 8.7 km/h 11.9 km/h 48 % 0.0 mm
15:13 16.2 °C 4.8 °C 1024.9 hPa SSE 8.7 km/h 11.6 km/h 47 % 0.0 mm
15:18 16.0 °C 4.7 °C 1024.9 hPa SSE 9.3 km/h 11.6 km/h 47 % 0.0 mm
15:23 16.0 °C 4.7 °C 1023.9 hPa SSW 2.6 km/h 11.6 km/h 47 % 0.0 mm
15:28 16.4 °C 5.3 °C 1023.9 hPa SSE 5.5 km/h 10.1 km/h 48 % 0.0 mm
15:33 16.4 °C 5.4 °C 1023.9 hPa SE 8.7 km/h 9.3 km/h 48 % 0.0 mm
15:38 16.3 °C 5.2 °C 1024.9 hPa SSE 8.7 km/h 9.7 km/h 48 % 0.0 mm
15:43 16.4 °C 5.3 °C 1024.9 hPa SSW 9.0 km/h 10.8 km/h 48 % 0.0 mm
15:48 16.3 °C 5.2 °C 1024.9 hPa South 4.7 km/h 10.8 km/h 48 % 0.0 mm
15:53 16.2 °C 5.2 °C 1024.9 hPa SSW 6.1 km/h 14.0 km/h 48 % 0.0 mm
15:58 16.0 °C 4.9 °C 1024.9 hPa South 9.7 km/h 14.0 km/h 48 % 0.0 mm
16:03 15.9 °C 4.9 °C 1024.9 hPa South 1.4 km/h 13.0 km/h 48 % 0.0 mm
16:08 16.0 °C 4.9 °C 1024.9 hPa SE 5.5 km/h 11.9 km/h 48 % 0.0 mm
16:13 16.0 °C 4.9 °C 1024.9 hPa South 6.4 km/h 9.7 km/h 48 % 0.0 mm
16:18 16.0 °C 5.3 °C 1024.9 hPa Calm   9.3 km/h 49 % 0.0 mm
16:23 15.7 °C 5.0 °C 1024.9 hPa South 9.3 km/h 11.9 km/h 49 % 0.0 mm
16:28 15.5 °C 4.8 °C 1024.9 hPa SSW 9.3 km/h 11.9 km/h 49 % 0.0 mm
16:33 15.5 °C 5.1 °C 1024.9 hPa South 13.7 km/h 13.7 km/h 50 % 0.0 mm
16:38 15.2 °C 4.8 °C 1024.9 hPa SSW 9.3 km/h 14.0 km/h 50 % 0.0 mm
16:43 15.0 °C 4.7 °C 1024.9 hPa South 6.9 km/h 14.0 km/h 50 % 0.0 mm
16:48 14.9 °C 4.8 °C 1024.9 hPa South 6.1 km/h 13.7 km/h 51 % 0.0 mm
16:53 14.9 °C 5.1 °C 1024.9 hPa SSE 6.9 km/h 12.2 km/h 52 % 0.0 mm
16:58 14.8 °C 5.3 °C 1024.9 hPa SSE 5.8 km/h 13.0 km/h 53 % 0.0 mm
17:03 14.8 °C 5.3 °C 1024.9 hPa South 7.9 km/h 13.0 km/h 53 % 0.0 mm
17:08 14.7 °C 5.5 °C 1023.9 hPa South 5.5 km/h 9.0 km/h 54 % 0.0 mm
17:13 14.6 °C 5.4 °C 1023.9 hPa South 5.0 km/h 9.0 km/h 54 % 0.0 mm
17:18 14.5 °C 5.6 °C 1023.9 hPa South 5.5 km/h 10.5 km/h 55 % 0.0 mm
17:23 14.4 °C 5.7 °C 1023.9 hPa SSE 5.0 km/h 10.5 km/h 56 % 0.0 mm
17:28 14.3 °C 5.7 °C 1023.9 hPa South 4.0 km/h 10.1 km/h 56 % 0.0 mm
17:33 14.1 °C 5.4 °C 1023.9 hPa South 3.2 km/h 10.5 km/h 56 % 0.0 mm
17:38 14.0 °C 5.4 °C 1023.9 hPa South 4.7 km/h 10.5 km/h 56 % 0.0 mm
17:43 13.9 °C 5.6 °C 1023.9 hPa South 5.5 km/h 8.7 km/h 57 % 0.0 mm
17:48 13.8 °C 5.7 °C 1023.9 hPa SSW 10.5 km/h 10.5 km/h 58 % 0.0 mm
17:53 13.7 °C 5.6 °C 1023.9 hPa SSE 4.7 km/h 11.9 km/h 58 % 0.0 mm
17:58 13.5 °C 5.7 °C 1023.9 hPa SSE 4.3 km/h 11.9 km/h 59 % 0.0 mm
18:03 13.2 °C 5.6 °C 1023.9 hPa SSE 3.5 km/h 9.7 km/h 60 % 0.0 mm
18:08 13.1 °C 5.4 °C 1023.9 hPa SSE 5.8 km/h 6.1 km/h 60 % 0.0 mm
18:13 12.8 °C 5.7 °C 1023.9 hPa SSE 3.5 km/h 6.1 km/h 62 % 0.0 mm
18:18 12.6 °C 5.7 °C 1023.9 hPa SSE 4.0 km/h 8.7 km/h 63 % 0.0 mm
18:23 12.3 °C 5.5 °C 1023.9 hPa SE 4.3 km/h 8.7 km/h 63 % 0.0 mm
18:28 12.2 °C 5.6 °C 1023.9 hPa SSE 3.2 km/h 7.9 km/h 64 % 0.0 mm
18:33 11.8 °C 5.3 °C 1023.9 hPa Calm   5.8 km/h 64 % 0.0 mm
18:38 11.8 °C 5.4 °C 1023.9 hPa Calm   5.8 km/h 65 % 0.0 mm
18:43 11.4 °C 5.3 °C 1023.9 hPa Calm   6.1 km/h 66 % 0.0 mm
18:48 11.3 °C 5.2 °C 1023.9 hPa SSE 5.8 km/h 6.9 km/h 66 % 0.0 mm
18:53 11.1 °C 4.9 °C 1023.9 hPa SE 4.0 km/h 6.9 km/h 66 % 0.0 mm
18:58 10.9 °C 5.0 °C 1023.9 hPa SSE 4.3 km/h 6.4 km/h 67 % 0.0 mm
19:03 10.8 °C 4.9 °C 1023.9 hPa SSE 2.6 km/h 5.8 km/h 67 % 0.0 mm
19:08 10.6 °C 4.9 °C 1024.9 hPa SSE 4.0 km/h 5.8 km/h 68 % 0.0 mm
19:13 10.5 °C 4.8 °C 1024.9 hPa SSE 3.2 km/h 5.0 km/h 68 % 0.0 mm
19:18 10.3 °C 4.8 °C 1024.9 hPa Calm   5.5 km/h 69 % 0.0 mm
19:23 10.2 °C 4.8 °C 1023.9 hPa SE 1.8 km/h 5.5 km/h 69 % 0.0 mm
19:28 10.1 °C 4.7 °C 1023.9 hPa SE 1.4 km/h 5.5 km/h 69 % 0.0 mm
19:33 9.9 °C 4.4 °C 1023.9 hPa SE 4.3 km/h 5.5 km/h 69 % 0.0 mm
19:38 9.8 °C 4.6 °C 1024.9 hPa Calm   5.5 km/h 70 % 0.0 mm
19:43 9.7 °C 4.7 °C 1024.9 hPa Calm   5.0 km/h 71 % 0.0 mm
19:48 9.5 °C 4.5 °C 1024.9 hPa Calm   2.1 km/h 71 % 0.0 mm
19:53 9.5 °C 4.5 °C 1024.9 hPa Calm   5.8 km/h 71 % 0.0 mm
19:58 9.3 °C 4.3 °C 1024.9 hPa SE 1.8 km/h 5.8 km/h 71 % 0.0 mm
20:03 9.2 °C 4.4 °C 1024.9 hPa Calm   5.5 km/h 72 % 0.0 mm
20:08 9.2 °C 4.4 °C 1024.9 hPa SE 4.3 km/h 4.7 km/h 72 % 0.0 mm
20:13 9.1 °C 4.5 °C 1024.9 hPa SSE 4.3 km/h 5.5 km/h 73 % 0.0 mm
20:18 9.1 °C 4.5 °C 1024.9 hPa SSE 2.6 km/h 5.5 km/h 73 % 0.0 mm
20:23 9.1 °C 4.5 °C 1024.9 hPa SSE 3.2 km/h 5.8 km/h 73 % 0.0 mm
20:28 9.0 °C 4.4 °C 1024.9 hPa SSE 3.5 km/h 5.8 km/h 73 % 0.0 mm
20:33 8.9 °C 4.3 °C 1024.9 hPa SSE 2.6 km/h 5.5 km/h 73 % 0.0 mm
20:38 8.8 °C 4.2 °C 1024.9 hPa Calm   4.7 km/h 73 % 0.0 mm
20:43 8.6 °C 4.2 °C 1024.9 hPa Calm   4.3 km/h 74 % 0.0 mm
20:48 8.6 °C 4.2 °C 1024.9 hPa Calm   4.0 km/h 74 % 0.0 mm
20:53 8.5 °C 4.3 °C 1024.9 hPa SSE 2.6 km/h 4.0 km/h 75 % 0.0 mm
20:58 8.4 °C 4.2 °C 1024.9 hPa Calm   4.0 km/h 75 % 0.0 mm
21:03 8.3 °C 4.2 °C 1024.9 hPa Calm     75 % 0.0 mm
21:08 8.2 °C 4.2 °C 1024.9 hPa Calm   1.8 km/h 76 % 0.0 mm
21:13 8.1 °C 4.2 °C 1024.9 hPa Calm   4.0 km/h 76 % 0.0 mm
21:18 8.1 °C 4.1 °C 1024.9 hPa Calm   4.0 km/h 76 % 0.0 mm
21:23 7.9 °C 4.2 °C 1024.9 hPa SE 1.8 km/h 4.3 km/h 77 % 0.0 mm
21:28 7.7 °C 3.9 °C 1024.9 hPa Calm   4.3 km/h 77 % 0.0 mm
21:33 7.7 °C 4.2 °C 1024.9 hPa Calm   1.8 km/h 78 % 0.0 mm
21:38 7.7 °C 4.1 °C 1024.9 hPa Calm   4.0 km/h 78 % 0.0 mm
21:43 7.4 °C 4.1 °C 1024.9 hPa Calm   4.0 km/h 79 % 0.0 mm
21:48 7.3 °C 3.9 °C 1024.9 hPa Calm   1.8 km/h 79 % 0.0 mm
21:53 7.2 °C 3.8 °C 1023.9 hPa Calm     79 % 0.0 mm
21:58 6.9 °C 3.6 °C 1023.9 hPa Calm     79 % 0.0 mm
22:03 6.8 °C 3.7 °C 1023.9 hPa Calm     80 % 0.0 mm
22:08 6.7 °C 3.6 °C 1023.9 hPa Calm     81 % 0.0 mm
22:13 6.7 °C 3.6 °C 1023.9 hPa Calm     81 % 0.0 mm
22:18 6.6 °C 3.7 °C 1023.9 hPa Calm     82 % 0.0 mm
22:23 6.6 °C 3.7 °C 1023.9 hPa Calm   1.8 km/h 82 % 0.0 mm
22:28 6.6 °C 3.7 °C 1023.9 hPa Calm   4.7 km/h 82 % 0.0 mm
22:33 6.6 °C 3.9 °C 1023.9 hPa SSE 3.5 km/h 4.7 km/h 83 % 0.0 mm
22:38 6.6 °C 3.9 °C 1022.9 hPa SSE 4.0 km/h 4.7 km/h 83 % 0.0 mm
22:43 6.7 °C 4.2 °C 1022.9 hPa SE 3.5 km/h 5.0 km/h 84 % 0.0 mm
22:48 6.7 °C 4.2 °C 1022.9 hPa Calm   5.0 km/h 84 % 0.0 mm
22:51 6.7 °C 4.2 °C 1022.9 hPa Calm   5.0 km/h 84 % 0.0 mm
22:56 6.6 °C 4.1 °C 1022.9 hPa SE 3.2 km/h 3.5 km/h 84 % 0.0 mm
23:01 6.7 °C 4.2 °C 1022.9 hPa SSE 2.6 km/h 5.5 km/h 84 % 0.0 mm
23:06 6.7 °C 4.2 °C 1022.9 hPa SSE 3.2 km/h 5.5 km/h 84 % 0.0 mm
23:11 6.7 °C 4.2 °C 1022.9 hPa SSE 2.6 km/h 4.0 km/h 84 % 0.0 mm
23:16 6.6 °C 4.1 °C 1022.9 hPa Calm   4.0 km/h 84 % 0.0 mm
23:21 6.6 °C 4.1 °C 1022.9 hPa Calm   4.0 km/h 84 % 0.0 mm
23:26 6.6 °C 4.2 °C 1022.9 hPa Calm   4.0 km/h 85 % 0.0 mm
23:31 6.4 °C 4.1 °C 1022.9 hPa Calm     85 % 0.0 mm
23:36 6.4 °C 3.9 °C 1022.9 hPa SSE 3.2 km/h 4.3 km/h 84 % 0.0 mm
23:41 6.3 °C 3.9 °C 1022.9 hPa Calm   6.9 km/h 85 % 0.0 mm
23:46 6.4 °C 4.1 °C 1022.9 hPa South 4.0 km/h 6.9 km/h 85 % 0.0 mm
23:51 6.4 °C 4.1 °C 1022.9 hPa SSW 3.2 km/h 5.5 km/h 85 % 0.0 mm
23:56 6.4 °C 4.1 °C 1021.9 hPa South 2.1 km/h 5.5 km/h 85 % 0.0 mm
Le Gheer Warneton
Courtoisie de Weather Underground - 2.25 mb

Mise a jour : 17-12-17 09:05:12
Généré par Cumulus 1.9.4 (1099)